NGS weather

Nagasaki Airport
Nagasaki, Nagasaki Prefecture, Japan

Public forecast

Using degrees Celsius for public forecast. Weather courtesy of forecast.io.

METAR (pilot weather report)

Report is more than 2 hours old.

Retrieved 2019/05/19 12:00 UTC (4 hours ago):

RJFU 191200Z 14014KT 9999 FEW030 BKN070 BKN110 22/20 Q1008

TAF (pilot weather forecast)

Retrieved 2019/05/19 12:30 UTC (4 hours ago):

TAF RJFU 191109Z 1912/2018 14007KT 9000 -SHRA FEW010 SCT020 BKN030 TEMPO 1915/1920 4000 -SHRA BR BECMG 2000/2003 25010KT BECMG 2006/2009 31011KT